createdAt,value
2018-07-19T07:17:41.120Z,99.90
2018-07-19T11:17:27.462Z,79.40
2018-07-19T11:20:45.979Z,81.30
2018-07-19T11:35:24.546Z,79.40
2018-07-19T11:39:23.182Z,79.50
2018-07-19T11:46:20.406Z,70.60
2018-07-19T11:58:26.694Z,66.50
2018-07-19T12:12:04.431Z,68.20
2018-07-19T12:21:31.399Z,68.60
2018-07-19T12:33:54.849Z,60.40
2018-07-19T12:37:00.850Z,64.00
2018-07-19T12:40:06.334Z,64.10
2018-07-19T12:43:14.189Z,64.40
2018-07-19T12:46:29.652Z,68.10
2018-07-19T12:52:59.146Z,67.30
2018-07-19T12:56:30.257Z,67.50
2018-07-19T12:59:38.244Z,63.80
2018-07-19T13:03:11.434Z,63.90
2018-07-19T13:13:45.496Z,68.00
2018-07-19T13:17:02.134Z,68.40
2018-07-19T13:40:31.970Z,66.50
2018-07-19T14:28:33.830Z,62.70
2018-07-19T14:31:37.653Z,62.40
2018-07-19T14:34:46.583Z,63.50
2018-07-19T14:37:56.033Z,66.60
2018-07-19T14:41:03.823Z,66.90
2018-07-19T14:44:11.674Z,67.80
2018-07-19T14:47:15.794Z,66.30
2018-07-19T14:50:19.248Z,66.90
2018-07-19T14:53:22.862Z,67.10
2018-07-19T14:56:27.143Z,65.10
2018-07-19T14:59:31.080Z,65.10
2018-07-19T15:02:35.010Z,62.70
2018-07-19T15:05:38.998Z,63.90
2018-07-19T15:08:42.499Z,62.10
2018-07-19T15:11:46.148Z,61.50
2018-07-19T15:14:49.808Z,61.00
2018-07-19T15:17:54.530Z,58.50
2018-07-19T15:20:58.410Z,60.50
2018-07-19T15:24:02.102Z,59.80
2018-07-19T15:27:05.872Z,60.10
2018-07-19T15:30:09.495Z,62.60
2018-07-19T15:33:13.229Z,60.70
2018-07-19T15:36:16.721Z,58.80
2018-07-19T15:39:20.159Z,59.00
2018-07-19T15:42:23.644Z,59.40
2018-07-19T15:45:27.206Z,59.50
2018-07-19T15:48:30.657Z,61.20
2018-07-19T15:51:34.116Z,59.80
2018-07-19T15:54:37.591Z,61.40
2018-07-19T15:57:41.002Z,61.70
2018-07-19T16:00:44.514Z,59.30
2018-07-19T16:03:47.855Z,59.30
2018-07-19T16:06:51.219Z,59.00
2018-07-19T16:09:54.564Z,59.50
2018-07-19T16:12:57.916Z,60.80
2018-07-19T16:16:01.231Z,60.20
2018-07-19T16:19:04.746Z,59.60
2018-07-19T16:22:08.200Z,56.60
2018-07-19T16:25:11.714Z,59.00
2018-07-19T16:28:15.102Z,59.00
2018-07-19T16:31:18.641Z,59.30
2018-07-19T16:34:21.992Z,59.70
2018-07-19T16:37:25.373Z,59.40
2018-07-19T16:40:28.786Z,58.60
2018-07-19T16:43:32.121Z,59.30
2018-07-19T16:46:35.570Z,60.00
2018-07-19T16:49:38.991Z,59.30
2018-07-19T16:52:42.309Z,59.80
2018-07-19T16:55:45.773Z,57.40
2018-07-19T16:58:49.280Z,58.90
2018-07-19T17:01:57.393Z,59.00
2018-07-19T17:05:01.402Z,58.60
2018-07-19T17:08:04.974Z,59.20
2018-07-19T17:11:08.437Z,59.00
2018-07-19T17:14:11.872Z,61.40
2018-07-19T17:17:15.251Z,60.20
2018-07-19T17:20:18.950Z,61.50
2018-07-19T17:23:22.458Z,60.00
2018-07-19T17:26:26.102Z,59.00
2018-07-19T17:29:30.193Z,59.40
2018-07-19T17:32:34.445Z,60.10
2018-07-19T17:35:39.648Z,57.70
2018-07-19T17:41:58.008Z,62.30
2018-07-19T17:45:06.769Z,59.00
2018-07-19T17:48:10.745Z,60.40
2018-07-19T17:51:16.204Z,61.60
2018-07-19T17:54:25.366Z,65.00
2018-07-19T17:57:30.426Z,66.50
2018-07-19T18:00:34.787Z,69.10
2018-07-19T18:03:38.803Z,71.00
2018-07-19T18:06:45.198Z,72.80
2018-07-19T18:09:49.576Z,73.80
2018-07-19T18:12:54.009Z,73.40
2018-07-19T18:15:57.818Z,73.90
2018-07-19T18:19:01.517Z,75.20
2018-07-19T18:22:05.650Z,76.80
2018-07-19T18:25:10.855Z,78.60
2018-07-19T18:28:14.368Z,80.90
2018-07-19T18:31:17.884Z,80.80
2018-07-19T18:34:21.555Z,82.90
2018-07-19T18:37:25.346Z,84.40
2018-07-19T18:40:29.083Z,83.40
2018-07-19T18:43:32.933Z,84.60
2018-07-19T18:46:41.200Z,85.20
2018-07-19T18:49:48.263Z,86.10
2018-07-19T18:52:59.263Z,86.50
2018-07-19T18:56:03.141Z,87.40
2018-07-19T18:59:07.367Z,87.70
2018-07-19T19:02:16.371Z,89.40
2018-07-19T19:05:20.058Z,90.40
2018-07-19T19:08:23.580Z,90.80
2018-07-19T19:11:27.227Z,91.10
2018-07-19T19:14:32.901Z,91.60
2018-07-19T19:17:37.709Z,91.40
2018-07-19T19:20:41.600Z,91.80
2018-07-19T19:23:45.791Z,92.00
2018-07-19T19:26:54.393Z,92.00
2018-07-19T19:30:00.067Z,92.70
2018-07-19T19:33:09.669Z,92.80
2018-07-19T19:36:14.773Z,92.60
2018-07-19T19:39:19.653Z,92.40
2018-07-19T19:42:23.189Z,92.90
2018-07-19T19:45:27.049Z,93.30
2018-07-19T19:48:34.384Z,93.30
2018-07-19T19:51:38.188Z,93.60
2018-07-19T19:54:41.989Z,92.80
2018-07-19T19:57:46.981Z,92.90
2018-07-19T20:00:50.957Z,92.40
2018-07-19T20:03:54.916Z,92.60
2018-07-19T20:06:58.697Z,92.80
2018-07-19T20:10:02.370Z,92.90
2018-07-19T20:13:07.513Z,92.90
2018-07-19T20:16:12.230Z,93.20
2018-07-19T20:19:36.658Z,92.30
2018-07-19T20:23:13.171Z,92.60
2018-07-19T20:26:19.538Z,92.00
2018-07-19T20:29:41.424Z,92.20
2018-07-19T20:32:50.670Z,92.00
2018-07-19T20:36:01.546Z,92.10
2018-07-19T20:39:07.898Z,92.00
2018-07-19T20:43:57.282Z,92.00
2018-07-19T20:47:06.800Z,92.10
2018-07-19T20:53:16.613Z,91.60
2018-07-19T20:56:26.990Z,91.50
2018-07-19T20:59:31.742Z,91.50
2018-07-19T21:02:36.374Z,91.60
2018-07-19T21:08:43.794Z,91.90
2018-07-19T21:11:51.742Z,91.60
2018-07-19T21:14:57.142Z,91.60
2018-07-19T21:18:16.332Z,92.10
2018-07-19T21:21:25.159Z,91.30
2018-07-19T21:25:00.230Z,91.50
2018-07-19T21:28:19.883Z,90.90
2018-07-19T21:32:20.281Z,91.80
2018-07-19T21:36:40.958Z,91.90
2018-07-19T21:39:54.747Z,92.10
2018-07-19T21:43:06.289Z,92.20
2018-07-19T21:46:19.758Z,91.90
2018-07-19T21:49:47.186Z,92.10
2018-07-19T21:53:01.345Z,92.90
